Time;durP1;ratioP1;P1;durP2;ratioP2;P2;SDS_P1;SDS_P2;PMS_P1;PMS_P2;Temp;Humidity;BMP_temperature;BMP_pressure;BME280_temperature;BME280_humidity;BME280_pressure;Samples;Min_cycle;Max_cycle;Signal;HPM_P1;HPM_P2
2022/08/13 00:00:13;;;;;;;;;;;;;;;22.31;30.58;97585.84;4919400;29;970;-76
2022/08/13 00:02:42;;;;;;;;;;;;;;;22.16;31.34;97579.91;4932714;29;1517;-76
2022/08/13 00:05:09;;;;;;;;;;;;;;;22.09;30.91;97574.47;4938089;29;1028;-76
2022/08/13 00:07:35;;;;;;;;;;;;;;;22.03;30.91;97570.63;4937774;29;1572;-76
2022/08/13 00:10:01;;;;;;;;;;;;;;;22.18;30.24;97571.75;4918895;29;996;-76
2022/08/13 00:15:16;;;;;;;;;;;;;;;21.90;30.52;97572.72;4918899;29;1054;-76
2022/08/13 00:17:42;;;;;;;;;;;;;;;21.89;30.64;97565.47;4917934;29;1915;-76
2022/08/13 00:20:08;;;;;;;;;;;;;;;21.88;30.17;97563.88;4919182;29;950;-77
2022/08/13 00:22:34;;;;;;;;;;;;;;;22.07;29.95;97571.28;4862041;29;1505;-76
2022/08/13 00:25:00;;;;;;;;;;;;;;;21.96;29.98;97570.88;4880924;29;951;-76
2022/08/13 00:27:26;;;;;;;;;;;;;;;22.04;29.70;97566.56;4862734;29;988;-76
2022/08/13 00:29:55;;;;;;;;;;;;;;;22.01;29.70;97562.56;4862616;29;1195;-77
2022/08/13 00:32:29;;;;;;;;;;;;;;;21.84;30.01;97553.47;4872904;29;1550;-76
2022/08/13 00:34:56;;;;;;;;;;;;;;;21.46;30.65;97561.25;4880986;29;1113;-76
2022/08/13 00:37:22;;;;;;;;;;;;;;;21.84;29.91;97564.00;4881023;29;1990;-76
2022/08/13 00:39:48;;;;;;;;;;;;;;;21.82;29.74;97566.50;4881385;29;897;-76
2022/08/13 00:42:18;;;;;;;;;;;;;;;22.00;29.49;97554.53;4871035;29;1734;-76
2022/08/13 00:44:43;;;;;;;;;;;;;;;21.93;29.53;97563.31;4862424;29;956;-76
2022/08/13 00:49:52;;;;;;;;;;;;;;;21.81;29.93;97562.88;4899499;29;948;-76
2022/08/13 00:52:19;;;;;;;;;;;;;;;22.05;30.98;97562.47;4909752;29;1495;-76
2022/08/13 00:54:45;;;;;;;;;;;;;;;22.31;30.69;97558.28;4908719;29;1730;-77
2022/08/13 00:57:12;;;;;;;;;;;;;;;22.24;31.04;97569.13;4899534;29;2249;-76
2022/08/13 00:59:37;;;;;;;;;;;;;;;22.10;30.89;97559.03;4913124;29;925;-76
2022/08/13 01:02:05;;;;;;;;;;;;;;;22.06;30.87;97564.03;4945196;28;1607;-76
2022/08/13 01:04:30;;;;;;;;;;;;;;;22.01;30.61;97556.13;4956559;28;962;-76
2022/08/13 01:06:56;;;;;;;;;;;;;;;22.09;30.42;97557.47;4956384;29;1010;-76
2022/08/13 01:09:21;;;;;;;;;;;;;;;22.07;30.25;97552.25;4993939;28;894;-76
2022/08/13 01:11:47;;;;;;;;;;;;;;;22.13;29.89;97555.34;4990961;28;1650;-76
2022/08/13 01:14:12;;;;;;;;;;;;;;;21.78;30.40;97555.28;4977755;28;920;-76
2022/08/13 01:16:38;;;;;;;;;;;;;;;21.58;30.51;97560.44;4978052;28;898;-76
2022/08/13 01:19:04;;;;;;;;;;;;;;;21.81;30.32;97554.38;4956039;29;1966;-76
2022/08/13 01:21:44;;;;;;;;;;;;;;;21.71;30.46;97561.22;4955086;29;1510;-76
2022/08/13 01:24:11;;;;;;;;;;;;;;;22.02;29.85;97552.03;4940275;29;1034;-76
2022/08/13 01:26:36;;;;;;;;;;;;;;;21.99;29.85;97558.63;4895069;29;2096;-76
2022/08/13 01:29:04;;;;;;;;;;;;;;;22.15;30.36;97557.69;4880153;29;1090;-77
2022/08/13 01:31:30;;;;;;;;;;;;;;;22.36;30.71;97554.09;4880767;29;1092;-76
2022/08/13 01:33:59;;;;;;;;;;;;;;;22.56;30.30;97556.59;4887907;29;1043;-76
2022/08/13 01:36:25;;;;;;;;;;;;;;;22.30;30.30;97555.94;4880039;29;970;-76
2022/08/13 01:38:51;;;;;;;;;;;;;;;22.25;30.12;97548.81;4879825;29;1911;-77
2022/08/13 01:41:16;;;;;;;;;;;;;;;21.95;30.71;97546.63;4880261;29;962;-76
2022/08/13 01:43:42;;;;;;;;;;;;;;;21.91;30.36;97551.63;4880120;29;1089;-76
2022/08/13 01:46:08;;;;;;;;;;;;;;;21.95;30.08;97550.25;4864452;29;936;-76
2022/08/13 01:51:21;;;;;;;;;;;;;;;22.02;30.04;97547.19;4898505;29;959;-76
2022/08/13 01:53:47;;;;;;;;;;;;;;;22.02;30.24;97549.19;4898833;29;1018;-76
2022/08/13 01:56:21;;;;;;;;;;;;;;;21.78;30.29;97543.97;4898962;29;968;-76
2022/08/13 01:58:47;;;;;;;;;;;;;;;21.80;30.20;97541.47;4879570;29;1980;-77
2022/08/13 02:01:14;;;;;;;;;;;;;;;21.80;30.20;97544.28;4880148;29;929;-76
2022/08/13 02:03:41;;;;;;;;;;;;;;;21.94;30.10;97539.38;4862016;29;1063;-76
2022/08/13 02:06:06;;;;;;;;;;;;;;;21.58;30.44;97541.41;4860978;29;1012;-76
2022/08/13 02:08:35;;;;;;;;;;;;;;;22.31;30.36;97541.28;4913825;29;1576;-76
2022/08/13 02:11:01;;;;;;;;;;;;;;;22.24;30.59;97541.56;4917673;29;968;-76
2022/08/13 02:13:28;;;;;;;;;;;;;;;22.00;30.99;97543.22;4917116;29;991;-76
2022/08/13 02:15:53;;;;;;;;;;;;;;;21.97;30.63;97542.09;4917486;29;924;-76
2022/08/13 02:18:20;;;;;;;;;;;;;;;21.84;30.63;97542.13;4917230;29;1911;-76
2022/08/13 02:20:51;;;;;;;;;;;;;;;21.95;30.43;97532.47;4917395;29;1585;-76
2022/08/13 02:23:19;;;;;;;;;;;;;;;22.02;29.91;97530.19;4917572;29;1009;-76
2022/08/13 02:25:45;;;;;;;;;;;;;;;21.65;30.69;97534.69;4917793;29;965;-76
2022/08/13 02:28:12;;;;;;;;;;;;;;;21.90;30.10;97533.06;4917108;29;948;-76
2022/08/13 02:30:37;;;;;;;;;;;;;;;21.92;30.15;97530.56;4917249;29;1707;-76
2022/08/13 02:33:05;;;;;;;;;;;;;;;21.72;30.64;97528.81;4917317;29;1178;-76
2022/08/13 02:35:31;;;;;;;;;;;;;;;21.90;30.16;97539.50;4966468;28;1598;-76
2022/08/13 02:37:56;;;;;;;;;;;;;;;21.79;30.65;97530.59;4988032;28;1965;-76
2022/08/13 02:43:06;;;;;;;;;;;;;;;21.85;30.04;97526.72;4997569;28;1002;-76
2022/08/13 02:45:31;;;;;;;;;;;;;;;22.01;30.11;97525.75;4958328;29;1616;-76
2022/08/13 02:47:57;;;;;;;;;;;;;;;22.34;30.53;97534.72;4942078;29;1601;-76
2022/08/13 02:50:23;;;;;;;;;;;;;;;22.08;30.88;97530.38;4958898;29;891;-76
2022/08/13 02:52:51;;;;;;;;;;;;;;;22.07;30.65;97523.94;4959059;29;980;-77
2022/08/13 02:55:22;;;;;;;;;;;;;;;21.69;31.17;97523.25;4958932;29;1025;-76
2022/08/13 02:57:47;;;;;;;;;;;;;;;21.80;30.80;97524.47;4958271;29;1973;-76
2022/08/13 03:00:13;;;;;;;;;;;;;;;21.95;30.32;97529.63;4938841;29;1487;-77
2022/08/13 03:02:42;;;;;;;;;;;;;;;22.07;30.05;97525.94;4938652;29;1700;-76
2022/08/13 03:05:08;;;;;;;;;;;;;;;21.98;30.21;97525.91;4939420;29;942;-76
2022/08/13 03:07:34;;;;;;;;;;;;;;;21.99;30.04;97525.44;4937808;29;1498;-76
2022/08/13 03:09:59;;;;;;;;;;;;;;;21.97;30.31;97535.66;4939016;29;1424;-76
2022/08/13 03:12:26;;;;;;;;;;;;;;;21.76;30.42;97529.47;4923659;29;991;-76
2022/08/13 03:14:51;;;;;;;;;;;;;;;21.83;30.34;97534.09;4906709;29;1030;-76
2022/08/13 03:17:17;;;;;;;;;;;;;;;21.72;30.52;97525.19;4878803;29;1982;-76
2022/08/13 03:19:42;;;;;;;;;;;;;;;21.71;30.67;97538.56;4882032;29;1515;-76
2022/08/13 03:22:08;;;;;;;;;;;;;;;21.83;30.21;97534.88;4882345;29;1018;-76
2022/08/13 03:24:33;;;;;;;;;;;;;;;21.84;30.12;97536.47;4882600;29;1024;-76
2022/08/13 03:26:59;;;;;;;;;;;;;;;22.31;30.58;97535.63;4866507;29;908;-76
2022/08/13 03:29:25;;;;;;;;;;;;;;;22.21;30.66;97531.13;4868023;29;1779;-76
2022/08/13 03:31:50;;;;;;;;;;;;;;;22.19;30.34;97536.50;4877993;29;937;-76
2022/08/13 03:34:17;;;;;;;;;;;;;;;22.01;30.77;97533.47;4882255;29;1573;-76
2022/08/13 03:36:42;;;;;;;;;;;;;;;21.95;30.53;97529.63;4882419;29;967;-76
2022/08/13 03:39:08;;;;;;;;;;;;;;;21.93;30.51;97526.47;4893292;29;1997;-76
2022/08/13 03:41:33;;;;;;;;;;;;;;;21.92;30.27;97530.56;4863262;29;1030;-76
2022/08/13 03:43:59;;;;;;;;;;;;;;;21.81;30.29;97531.75;4863125;29;994;-76
2022/08/13 03:46:25;;;;;;;;;;;;;;;21.89;30.30;97537.13;4863168;29;1033;-76
2022/08/13 03:48:50;;;;;;;;;;;;;;;21.97;30.01;97527.16;4872155;29;1650;-77
2022/08/13 03:51:19;;;;;;;;;;;;;;;21.96;30.18;97532.00;4883551;29;1035;-77
2022/08/13 03:53:45;;;;;;;;;;;;;;;21.71;30.45;97527.22;4903449;29;1013;-76
2022/08/13 03:56:10;;;;;;;;;;;;;;;21.91;30.04;97526.91;4938616;29;1326;-76
2022/08/13 03:58:37;;;;;;;;;;;;;;;22.15;30.56;97524.47;4951929;28;1910;-76
2022/08/13 04:01:04;;;;;;;;;;;;;;;22.19;30.32;97516.66;4976982;28;917;-77
2022/08/13 04:03:30;;;;;;;;;;;;;;;22.06;30.50;97525.16;4961010;28;917;-76
2022/08/13 04:05:58;;;;;;;;;;;;;;;22.12;30.17;97522.56;4957239;29;1171;-76
2022/08/13 04:08:24;;;;;;;;;;;;;;;22.06;30.16;97510.22;4951429;29;1599;-77
2022/08/13 04:10:50;;;;;;;;;;;;;;;22.06;29.86;97518.72;4938190;29;965;-77
2022/08/13 04:13:16;;;;;;;;;;;;;;;22.21;29.65;97524.69;4937884;29;1786;-76
2022/08/13 04:15:44;;;;;;;;;;;;;;;21.84;30.17;97513.81;4938071;29;1012;-76
2022/08/13 04:18:11;;;;;;;;;;;;;;;21.97;29.86;97522.28;4941385;29;1983;-76
2022/08/13 04:20:38;;;;;;;;;;;;;;;21.83;29.93;97517.91;4956948;28;966;-76
2022/08/13 04:23:06;;;;;;;;;;;;;;;22.01;29.91;97514.41;4957223;28;1024;-76
2022/08/13 04:25:31;;;;;;;;;;;;;;;21.83;30.13;97523.56;4956931;28;993;-76
2022/08/13 04:27:58;;;;;;;;;;;;;;;21.57;30.42;97505.06;4956744;28;1013;-76
2022/08/13 04:30:23;;;;;;;;;;;;;;;21.65;30.33;97512.03;4956746;28;938;-76
2022/08/13 04:32:49;;;;;;;;;;;;;;;21.67;30.20;97509.56;4956898;29;942;-76
2022/08/13 04:35:14;;;;;;;;;;;;;;;22.01;29.59;97513.63;4956816;28;1399;-76
2022/08/13 04:37:40;;;;;;;;;;;;;;;21.95;30.08;97521.13;4975121;28;1994;-76
2022/08/13 04:40:06;;;;;;;;;;;;;;;22.08;30.90;97521.88;4954703;28;1272;-76
2022/08/13 04:42:44;;;;;;;;;;;;;;;22.32;30.56;97516.56;4997449;28;1194;-77
2022/08/13 04:45:09;;;;;;;;;;;;;;;22.20;30.69;97515.41;4996206;28;1176;-76
2022/08/13 04:47:35;;;;;;;;;;;;;;;22.08;30.75;97527.56;4997160;28;1329;-76
2022/08/13 04:50:01;;;;;;;;;;;;;;;22.11;30.26;97501.16;4997137;28;1251;-76
2022/08/13 04:52:26;;;;;;;;;;;;;;;22.00;30.65;97521.34;4997185;28;1190;-76
2022/08/13 04:54:51;;;;;;;;;;;;;;;22.09;30.35;97523.47;4996553;28;1203;-76
2022/08/13 04:57:17;;;;;;;;;;;;;;;21.93;30.64;97520.81;4997167;28;1985;-76
2022/08/13 04:59:45;;;;;;;;;;;;;;;21.98;30.19;97520.22;4997668;28;920;-76
2022/08/13 05:02:11;;;;;;;;;;;;;;;22.02;30.36;97518.03;4997142;28;1049;-76
2022/08/13 05:04:37;;;;;;;;;;;;;;;21.85;30.23;97526.72;4996933;28;900;-76
2022/08/13 05:07:02;;;;;;;;;;;;;;;21.92;30.25;97528.53;4997703;28;908;-76
2022/08/13 05:09:28;;;;;;;;;;;;;;;21.96;30.14;97528.38;4997391;28;935;-77
2022/08/13 05:11:55;;;;;;;;;;;;;;;22.18;29.70;97529.25;4997262;28;1048;-76
2022/08/13 05:14:21;;;;;;;;;;;;;;;21.99;29.93;97528.25;4996956;28;917;-76
2022/08/13 05:16:46;;;;;;;;;;;;;;;22.06;29.61;97518.72;4997060;28;984;-76
2022/08/13 05:19:11;;;;;;;;;;;;;;;21.85;30.20;97520.25;4997329;28;1971;-76
2022/08/13 05:21:37;;;;;;;;;;;;;;;21.67;30.36;97520.91;4997179;28;968;-76
2022/08/13 05:24:02;;;;;;;;;;;;;;;22.10;31.16;97519.38;4997003;28;992;-76
2022/08/13 05:26:31;;;;;;;;;;;;;;;22.25;31.22;97519.69;4996511;28;1235;-76
2022/08/13 05:29:05;;;;;;;;;;;;;;;22.13;31.41;97529.84;4947511;28;1322;-75
2022/08/13 05:31:31;;;;;;;;;;;;;;;22.16;31.18;97522.44;4997053;28;1061;-76
2022/08/13 05:33:57;;;;;;;;;;;;;;;22.07;31.08;97514.63;5002618;28;1224;-76
2022/08/13 05:36:28;;;;;;;;;;;;;;;22.01;30.96;97505.13;5016232;28;1328;-76
2022/08/13 05:38:55;;;;;;;;;;;;;;;21.89;31.48;97503.16;5016199;28;1899;-76
2022/08/13 05:41:21;;;;;;;;;;;;;;;21.72;31.61;97500.50;5015781;28;1254;-75
2022/08/13 05:43:50;;;;;;;;;;;;;;;21.96;30.88;97494.38;5015973;28;1243;-76
2022/08/13 05:46:16;;;;;;;;;;;;;;;22.01;30.86;97499.47;5015933;28;1400;-76
2022/08/13 05:48:42;;;;;;;;;;;;;;;22.03;30.20;97497.75;5015638;28;1195;-74
2022/08/13 05:51:08;;;;;;;;;;;;;;;22.01;30.70;97499.47;5002333;28;1328;-75
2022/08/13 05:53:36;;;;;;;;;;;;;;;21.77;30.73;97499.91;5016101;28;982;-75
2022/08/13 05:56:02;;;;;;;;;;;;;;;21.90;30.62;97499.06;5016463;28;897;-75
2022/08/13 05:58:28;;;;;;;;;;;;;;;22.00;30.35;97492.22;4966301;28;1981;-75
2022/08/13 06:03:37;;;;;;;;;;;;;;;21.83;30.39;97489.56;5015928;28;1106;-75
2022/08/13 06:06:06;;;;;;;;;;;;;;;21.95;30.49;97492.81;5016460;28;1047;-76
2022/08/13 06:08:32;;;;;;;;;;;;;;;21.95;30.40;97489.97;4974775;28;943;-75
2022/08/13 06:11:02;;;;;;;;;;;;;;;21.98;30.43;97495.53;4939425;29;1063;-75
2022/08/13 06:13:28;;;;;;;;;;;;;;;21.81;30.45;97494.91;4955446;29;985;-76
2022/08/13 06:16:00;;;;;;;;;;;;;;;21.95;30.21;97492.81;4956150;28;884;-75
2022/08/13 06:18:29;;;;;;;;;;;;;;;21.58;30.70;97498.16;4902042;29;1899;-75
2022/08/13 06:20:55;;;;;;;;;;;;;;;21.93;30.35;97493.28;4902274;29;942;-75
2022/08/13 06:23:22;;;;;;;;;;;;;;;21.74;30.75;97491.53;4904870;29;1355;-75
2022/08/13 06:25:52;;;;;;;;;;;;;;;22.05;29.88;97494.47;4891524;29;1312;-76
2022/08/13 06:28:21;;;;;;;;;;;;;;;21.82;30.66;97490.03;4861494;29;1257;-76
2022/08/13 06:30:48;;;;;;;;;;;;;;;21.91;30.21;97486.47;4877828;29;1202;-76
2022/08/13 06:33:13;;;;;;;;;;;;;;;21.89;30.35;97491.81;4892198;29;1316;-76
2022/08/13 06:35:38;;;;;;;;;;;;;;;21.87;30.59;97494.34;4857647;29;1391;-76
2022/08/13 06:38:05;;;;;;;;;;;;;;;22.02;29.96;97490.53;4855238;29;2327;-75
2022/08/13 06:40:35;;;;;;;;;;;;;;;22.17;29.74;97495.69;4846057;29;1297;-76
2022/08/13 06:43:01;;;;;;;;;;;;;;;21.98;30.14;97486.25;4844544;29;976;-75
2022/08/13 06:45:26;;;;;;;;;;;;;;;21.94;30.26;97488.41;4845941;29;972;-76
2022/08/13 06:47:52;;;;;;;;;;;;;;;21.97;30.18;97488.28;4845618;29;930;-75
2022/08/13 06:50:17;;;;;;;;;;;;;;;21.91;30.14;97489.31;4861797;29;969;-75
2022/08/13 06:52:43;;;;;;;;;;;;;;;21.84;30.57;97498.84;4864439;29;968;-75
2022/08/13 06:55:08;;;;;;;;;;;;;;;21.93;30.42;97486.81;4864713;29;1150;-75
2022/08/13 06:57:36;;;;;;;;;;;;;;;22.03;30.32;97492.09;4864310;29;1899;-75
2022/08/13 07:00:03;;;;;;;;;;;;;;;21.68;30.52;97487.72;4848788;29;982;-75
2022/08/13 07:02:29;;;;;;;;;;;;;;;21.88;30.40;97484.56;4872353;29;1459;-75
2022/08/13 07:04:55;;;;;;;;;;;;;;;21.94;30.30;97494.84;4900866;29;1299;-75
2022/08/13 07:07:20;;;;;;;;;;;;;;;21.82;30.67;97482.34;4915954;29;1318;-76
2022/08/13 07:09:46;;;;;;;;;;;;;;;21.68;31.01;97477.16;4919681;29;1243;-75
2022/08/13 07:12:14;;;;;;;;;;;;;;;21.94;30.26;97483.53;4906077;29;1284;-74
2022/08/13 07:14:43;;;;;;;;;;;;;;;21.91;30.65;97483.66;4930668;29;1252;-76
2022/08/13 07:17:10;;;;;;;;;;;;;;;21.97;30.58;97484.66;4931645;29;1906;-76
2022/08/13 07:19:37;;;;;;;;;;;;;;;21.75;30.50;97476.91;4958132;29;1136;-75
2022/08/13 07:22:03;;;;;;;;;;;;;;;21.89;30.42;97480.50;4958344;29;1004;-75
2022/08/13 07:24:28;;;;;;;;;;;;;;;21.81;30.56;97477.09;4957664;29;1080;-75
2022/08/13 07:26:59;;;;;;;;;;;;;;;22.06;30.40;97467.72;4957436;28;1346;-75
2022/08/13 07:29:26;;;;;;;;;;;;;;;21.92;30.23;97469.03;4957785;29;1267;-75
2022/08/13 07:31:53;;;;;;;;;;;;;;;21.83;30.39;97466.91;4958102;29;992;-75
2022/08/13 07:34:19;;;;;;;;;;;;;;;21.92;30.43;97468.25;4957898;29;1208;-75
2022/08/13 07:36:44;;;;;;;;;;;;;;;21.95;30.71;97472.97;4925928;29;997;-76
2022/08/13 07:39:11;;;;;;;;;;;;;;;22.04;30.39;97464.56;4958083;29;1975;-75
2022/08/13 07:41:45;;;;;;;;;;;;;;;22.01;30.37;97471.94;4938428;29;1005;-75
2022/08/13 07:44:17;;;;;;;;;;;;;;;22.04;30.33;97468.19;4937003;29;1131;-75
2022/08/13 07:46:44;;;;;;;;;;;;;;;21.80;30.95;97461.38;4938666;29;1116;-75
2022/08/13 07:49:11;;;;;;;;;;;;;;;22.02;30.79;97464.22;4919425;29;1008;-75
2022/08/13 07:51:37;;;;;;;;;;;;;;;22.07;30.45;97469.28;4902084;29;1425;-76
2022/08/13 07:54:05;;;;;;;;;;;;;;;22.02;30.68;97467.03;4900764;29;1013;-75
2022/08/13 07:56:31;;;;;;;;;;;;;;;21.97;30.40;97470.50;4900742;29;953;-76
2022/08/13 07:59:00;;;;;;;;;;;;;;;22.08;30.15;97470.88;4878412;29;1993;-76
2022/08/13 08:01:27;;;;;;;;;;;;;;;22.25;29.81;97469.47;4863011;29;930;-77
2022/08/13 08:03:54;;;;;;;;;;;;;;;21.82;30.49;97468.19;4863039;29;912;-77
2022/08/13 08:06:20;;;;;;;;;;;;;;;22.03;30.57;97468.66;4863212;29;1039;-77
2022/08/13 08:08:45;;;;;;;;;;;;;;;22.05;30.13;97454.81;4862929;29;1008;-77
2022/08/13 08:12:30;;;;;;;;;;;;;;;21.74;30.50;97457.56;4862993;29;986;-77
2022/08/13 08:14:00;;;;;;;;;;;;;;;21.71;30.96;97456.44;4863622;29;1060;-77
2022/08/13 08:16:29;;;;;;;;;;;;;;;22.01;30.32;97454.94;4881533;29;987;-76
2022/08/13 08:18:54;;;;;;;;;;;;;;;22.15;30.32;97453.66;4881541;29;1980;-77
2022/08/13 08:21:23;;;;;;;;;;;;;;;22.04;30.25;97447.56;4900479;29;970;-77
2022/08/13 08:23:50;;;;;;;;;;;;;;;22.23;29.99;97451.34;4900126;29;1040;-77
2022/08/13 08:26:15;;;;;;;;;;;;;;;21.94;30.38;97443.09;4899994;29;1003;-77
2022/08/13 08:28:41;;;;;;;;;;;;;;;22.16;29.97;97455.22;4880773;29;1125;-76
2022/08/13 08:31:07;;;;;;;;;;;;;;;22.05;29.99;97451.97;4899791;29;1063;-76
2022/08/13 08:33:33;;;;;;;;;;;;;;;21.96;30.34;97451.91;4899393;29;1210;-76
2022/08/13 08:35:58;;;;;;;;;;;;;;;22.04;29.86;97437.03;4893293;29;913;-76
2022/08/13 08:43:53;;;;;;;;;;;;;;;22.02;30.30;97438.72;4880897;29;984;-75
2022/08/13 08:46:19;;;;;;;;;;;;;;;22.06;29.88;97428.03;4866520;29;969;-75
2022/08/13 08:48:45;;;;;;;;;;;;;;;21.85;30.66;97429.63;4899689;29;941;-75
2022/08/13 08:51:10;;;;;;;;;;;;;;;21.85;30.54;97416.25;4899470;29;944;-75
2022/08/13 08:53:36;;;;;;;;;;;;;;;21.83;30.57;97424.44;4880381;29;922;-75
2022/08/13 08:56:03;;;;;;;;;;;;;;;21.56;30.80;97367.59;4881104;29;930;-75
2022/08/13 08:58:29;;;;;;;;;;;;;;;22.02;30.19;97410.38;4937385;29;1899;-76
2022/08/13 09:00:56;;;;;;;;;;;;;;;22.26;29.58;97417.19;4937060;29;903;-75
2022/08/13 09:03:24;;;;;;;;;;;;;;;22.10;30.10;97414.53;4937127;29;965;-75
2022/08/13 09:05:49;;;;;;;;;;;;;;;21.88;30.70;97405.28;4913247;29;1020;-77
2022/08/13 09:08:15;;;;;;;;;;;;;;;22.04;30.45;97405.06;4956289;29;1040;-75
2022/08/13 09:10:42;;;;;;;;;;;;;;;21.96;30.34;97401.69;4956459;29;1016;-76
2022/08/13 09:13:07;;;;;;;;;;;;;;;22.18;30.11;97393.22;4918192;29;976;-75
2022/08/13 09:15:34;;;;;;;;;;;;;;;22.17;30.14;97397.28;4917771;29;945;-75
2022/08/13 09:18:00;;;;;;;;;;;;;;;22.11;30.23;97396.31;4861390;29;1907;-75
2022/08/13 09:20:26;;;;;;;;;;;;;;;22.12;29.95;97386.56;4861610;29;999;-75
2022/08/13 09:23:03;;;;;;;;;;;;;;;22.04;30.50;97390.91;4861628;29;1066;-76
2022/08/13 09:25:29;;;;;;;;;;;;;;;22.12;30.02;97386.56;4824828;29;1076;-75
2022/08/13 09:27:55;;;;;;;;;;;;;;;22.15;30.48;97390.53;4825314;29;1017;-75
2022/08/13 09:30:20;;;;;;;;;;;;;;;22.16;30.49;97387.22;4825330;29;1056;-75
2022/08/13 09:32:48;;;;;;;;;;;;;;;22.11;30.36;97384.97;4840580;29;1041;-75
2022/08/13 09:35:14;;;;;;;;;;;;;;;21.89;30.78;97389.84;4843152;29;1075;-75
2022/08/13 09:37:40;;;;;;;;;;;;;;;22.05;30.26;97390.44;4843430;29;1907;-75
2022/08/13 09:40:06;;;;;;;;;;;;;;;22.10;30.10;97378.53;4843095;29;1003;-75
2022/08/13 09:42:33;;;;;;;;;;;;;;;21.98;30.46;97381.44;4842905;29;1053;-76
2022/08/13 09:45:00;;;;;;;;;;;;;;;22.03;30.39;97375.16;4843123;29;942;-75
2022/08/13 09:47:25;;;;;;;;;;;;;;;22.03;30.07;97372.34;4843076;29;937;-75
2022/08/13 09:49:51;;;;;;;;;;;;;;;22.08;30.42;97380.22;4856424;29;905;-76
2022/08/13 09:52:17;;;;;;;;;;;;;;;22.21;29.83;97383.78;4864911;29;1277;-76
2022/08/13 09:54:42;;;;;;;;;;;;;;;22.13;30.15;97370.38;4850495;29;1168;-76
2022/08/13 09:57:08;;;;;;;;;;;;;;;22.28;29.83;97372.19;4861086;29;1982;-76
2022/08/13 09:59:34;;;;;;;;;;;;;;;21.88;30.54;97371.28;4883714;29;933;-76
2022/08/13 10:02:02;;;;;;;;;;;;;;;21.87;30.05;97358.38;4883712;29;984;-75
2022/08/13 10:04:29;;;;;;;;;;;;;;;22.00;30.22;97362.69;4883538;29;970;-75
2022/08/13 10:06:58;;;;;;;;;;;;;;;22.24;29.92;97360.19;4902155;29;1028;-75
2022/08/13 10:09:26;;;;;;;;;;;;;;;22.15;30.18;97353.69;4902421;29;988;-75
2022/08/13 10:11:54;;;;;;;;;;;;;;;22.06;30.21;97365.72;4902581;29;966;-76
2022/08/13 10:14:20;;;;;;;;;;;;;;;22.03;30.36;97361.00;4883194;29;2070;-76
2022/08/13 10:16:45;;;;;;;;;;;;;;;22.02;30.45;97357.38;4895901;29;1178;-75
2022/08/13 10:19:11;;;;;;;;;;;;;;;22.21;30.17;97354.66;4902325;29;1899;-76
2022/08/13 10:21:37;;;;;;;;;;;;;;;22.30;29.74;97361.16;4886779;29;894;-75
2022/08/13 10:24:04;;;;;;;;;;;;;;;22.23;30.24;97358.63;4883551;29;1048;-75
2022/08/13 10:26:29;;;;;;;;;;;;;;;21.97;30.28;97351.53;4883007;29;957;-76
2022/08/13 10:28:55;;;;;;;;;;;;;;;22.16;29.93;97352.44;4895730;29;997;-75
2022/08/13 10:31:23;;;;;;;;;;;;;;;22.09;30.15;97359.13;4892665;29;1038;-75
2022/08/13 10:33:54;;;;;;;;;;;;;;;22.12;29.89;97346.88;4946477;29;1430;-76
2022/08/13 10:36:21;;;;;;;;;;;;;;;22.18;29.99;97339.38;4958643;29;1088;-75
2022/08/13 10:38:46;;;;;;;;;;;;;;;22.09;30.07;97337.25;4977694;28;1966;-76
2022/08/13 10:41:12;;;;;;;;;;;;;;;21.66;30.62;97343.78;4958630;29;887;-75
2022/08/13 10:43:40;;;;;;;;;;;;;;;21.84;30.26;97338.22;4959040;29;954;-75
2022/08/13 10:46:06;;;;;;;;;;;;;;;22.02;30.38;97331.06;4939355;29;956;-75
2022/08/13 10:48:32;;;;;;;;;;;;;;;21.96;30.22;97344.25;4920443;29;1095;-75
2022/08/13 10:50:57;;;;;;;;;;;;;;;22.00;30.27;97333.59;4920568;29;1008;-76
2022/08/13 10:56:08;;;;;;;;;;;;;;;21.82;30.62;97340.72;4920517;29;956;-76
2022/08/13 10:58:33;;;;;;;;;;;;;;;22.04;30.18;97328.56;4919990;29;1986;-76
2022/08/13 11:01:03;;;;;;;;;;;;;;;22.05;30.09;97330.16;4920311;29;1058;-76
2022/08/13 11:03:33;;;;;;;;;;;;;;;22.14;29.82;97335.91;4919557;29;913;-75
2022/08/13 11:06:03;;;;;;;;;;;;;;;22.15;29.93;97331.81;4920234;29;977;-76
2022/08/13 11:08:29;;;;;;;;;;;;;;;22.30;29.72;97338.50;4920451;29;987;-76
2022/08/13 11:10:54;;;;;;;;;;;;;;;22.14;29.94;97335.91;4920267;29;1018;-76
2022/08/13 11:13:19;;;;;;;;;;;;;;;22.31;29.34;97331.56;4920186;29;979;-76
2022/08/13 11:15:45;;;;;;;;;;;;;;;22.30;29.54;97334.88;4920434;29;1024;-76
2022/08/13 11:18:11;;;;;;;;;;;;;;;22.29;29.35;97334.09;4919834;29;1876;-76
2022/08/13 11:23:20;;;;;;;;;;;;;;;22.21;29.82;97332.78;4957242;28;910;-76
2022/08/13 11:25:46;;;;;;;;;;;;;;;22.12;29.88;97329.88;4979521;28;1032;-75
2022/08/13 11:28:12;;;;;;;;;;;;;;;21.97;30.20;97328.88;4938504;29;1314;-76
2022/08/13 11:30:37;;;;;;;;;;;;;;;22.23;29.86;97324.63;4919568;29;991;-76
2022/08/13 11:33:03;;;;;;;;;;;;;;;22.15;29.60;97323.31;4919842;29;1279;-76
2022/08/13 11:35:29;;;;;;;;;;;;;;;21.88;30.03;97317.47;4919850;29;971;-76
2022/08/13 11:37:54;;;;;;;;;;;;;;;22.07;29.67;97317.13;4919603;29;1977;-76
2022/08/13 11:40:20;;;;;;;;;;;;;;;22.02;29.76;97314.88;4919831;29;971;-76
2022/08/13 11:42:45;;;;;;;;;;;;;;;22.03;29.84;97315.69;4919639;29;1048;-76
2022/08/13 11:45:10;;;;;;;;;;;;;;;22.26;29.57;97318.00;4919692;29;1159;-75
2022/08/13 11:47:39;;;;;;;;;;;;;;;22.14;29.57;97321.72;4919533;29;998;-75
2022/08/13 11:50:05;;;;;;;;;;;;;;;22.30;29.18;97315.03;4903561;29;999;-76
2022/08/13 11:52:31;;;;;;;;;;;;;;;22.25;29.33;97310.75;4938113;29;1245;-76
2022/08/13 11:54:57;;;;;;;;;;;;;;;21.93;29.88;97323.34;4930021;29;1675;-76
2022/08/13 11:57:22;;;;;;;;;;;;;;;22.06;29.56;97314.72;4921844;29;1973;-76
2022/08/13 11:59:48;;;;;;;;;;;;;;;22.05;29.83;97307.47;4948293;29;949;-76
2022/08/13 12:02:13;;;;;;;;;;;;;;;22.02;29.72;97302.75;4973363;28;907;-76
2022/08/13 12:04:40;;;;;;;;;;;;;;;22.12;29.69;97295.09;4978947;28;877;-76
2022/08/13 12:07:05;;;;;;;;;;;;;;;21.77;30.33;97287.53;4979005;28;859;-76
2022/08/13 12:09:31;;;;;;;;;;;;;;;22.19;29.27;97301.28;4960612;28;974;-76
2022/08/13 12:11:57;;;;;;;;;;;;;;;22.09;29.46;97306.09;4978758;28;912;-75
2022/08/13 12:14:22;;;;;;;;;;;;;;;22.16;29.33;97304.25;4977535;28;865;-75
2022/08/13 12:16:48;;;;;;;;;;;;;;;22.18;29.27;97305.38;4960957;28;942;-76
2022/08/13 12:19:13;;;;;;;;;;;;;;;22.34;29.00;97302.28;4978824;28;1902;-76
2022/08/13 12:21:38;;;;;;;;;;;;;;;22.18;29.23;97291.22;4978450;28;993;-76
2022/08/13 12:24:05;;;;;;;;;;;;;;;22.09;29.66;97291.94;4978867;28;891;-76
2022/08/13 12:26:31;;;;;;;;;;;;;;;22.20;29.12;97294.38;4978439;28;968;-76
2022/08/13 12:28:56;;;;;;;;;;;;;;;22.00;29.36;97291.09;4956618;29;2130;-76
2022/08/13 12:31:22;;;;;;;;;;;;;;;22.13;29.14;97291.81;4956917;29;995;-76
2022/08/13 12:33:47;;;;;;;;;;;;;;;22.16;29.12;97293.72;4963443;28;1118;-75
2022/08/13 12:36:13;;;;;;;;;;;;;;;21.92;29.73;97292.66;4976502;28;985;-76
2022/08/13 12:38:38;;;;;;;;;;;;;;;22.28;29.35;97294.88;4976340;28;1919;-75
2022/08/13 12:41:04;;;;;;;;;;;;;;;22.05;29.38;97296.16;4959679;28;1524;-75
2022/08/13 12:43:29;;;;;;;;;;;;;;;22.04;29.59;97305.91;4975599;28;1668;-76
2022/08/13 12:45:55;;;;;;;;;;;;;;;21.90;29.51;97295.13;4975828;28;1607;-76
2022/08/13 12:48:20;;;;;;;;;;;;;;;21.97;29.69;97300.53;4975631;28;1483;-76
2022/08/13 12:50:46;;;;;;;;;;;;;;;21.92;29.90;97289.81;4975766;28;1650;-76
2022/08/13 12:53:12;;;;;;;;;;;;;;;21.76;30.10;97285.94;4956214;29;1484;-76
2022/08/13 12:55:38;;;;;;;;;;;;;;;21.89;29.64;97293.56;4956023;29;1634;-76
2022/08/13 12:58:12;;;;;;;;;;;;;;;22.05;29.63;97284.81;4940122;29;1906;-76
2022/08/13 13:00:37;;;;;;;;;;;;;;;22.17;29.19;97281.13;4976980;28;1561;-76
2022/08/13 13:03:03;;;;;;;;;;;;;;;21.96;29.66;97276.28;4980473;28;1557;-76
2022/08/13 13:05:29;;;;;;;;;;;;;;;22.24;29.01;97286.50;4975815;28;1010;-76
2022/08/13 13:07:55;;;;;;;;;;;;;;;22.08;29.28;97289.56;4936695;29;1026;-76
2022/08/13 13:10:20;;;;;;;;;;;;;;;21.92;29.49;97281.31;4936929;29;955;-76
2022/08/13 13:12:46;;;;;;;;;;;;;;;21.89;29.41;97282.22;4946718;29;1319;-76
2022/08/13 13:15:11;;;;;;;;;;;;;;;22.12;29.21;97289.44;4950758;29;1693;-76
2022/08/13 13:17:40;;;;;;;;;;;;;;;22.39;28.90;97288.78;4947803;29;1911;-76
2022/08/13 13:20:06;;;;;;;;;;;;;;;22.36;28.77;97294.09;4905209;29;1500;-76